sensor_id;sensor_type;location;lat;lon;timestamp;temperature;humidity
3281;DHT22;1652;51.318;6.202;2022-11-21T00:00:52;7.00;99.90
3281;DHT22;1652;51.318;6.202;2022-11-21T00:03:19;6.90;99.90
3281;DHT22;1652;51.318;6.202;2022-11-21T00:05:47;6.90;99.90
3281;DHT22;1652;51.318;6.202;2022-11-21T00:08:19;6.90;99.90
3281;DHT22;1652;51.318;6.202;2022-11-21T00:10:46;6.90;99.90
3281;DHT22;1652;51.318;6.202;2022-11-21T00:13:18;7.00;99.90
3281;DHT22;1652;51.318;6.202;2022-11-21T00:15:46;7.00;99.90
3281;DHT22;1652;51.318;6.202;2022-11-21T00:18:13;7.00;99.90
3281;DHT22;1652;51.318;6.202;2022-11-21T00:20:40;7.00;99.90
3281;DHT22;1652;51.318;6.202;2022-11-21T00:23:08;7.00;99.90
3281;DHT22;1652;51.318;6.202;2022-11-21T00:25:36;6.90;99.90
3281;DHT22;1652;51.318;6.202;2022-11-21T00:28:03;6.90;99.90
3281;DHT22;1652;51.318;6.202;2022-11-21T00:30:30;6.90;99.90
3281;DHT22;1652;51.318;6.202;2022-11-21T00:32:58;6.80;99.90
3281;DHT22;1652;51.318;6.202;2022-11-21T00:35:25;6.80;99.90
3281;DHT22;1652;51.318;6.202;2022-11-21T00:37:51;6.70;99.90
3281;DHT22;1652;51.318;6.202;2022-11-21T00:40:18;6.70;99.90
3281;DHT22;1652;51.318;6.202;2022-11-21T00:42:45;6.70;99.90
3281;DHT22;1652;51.318;6.202;2022-11-21T00:45:11;6.70;99.90
3281;DHT22;1652;51.318;6.202;2022-11-21T00:47:38;6.60;99.90
3281;DHT22;1652;51.318;6.202;2022-11-21T00:50:05;6.50;99.90
3281;DHT22;1652;51.318;6.202;2022-11-21T00:52:32;6.50;99.90
3281;DHT22;1652;51.318;6.202;2022-11-21T00:54:59;6.60;99.90
3281;DHT22;1652;51.318;6.202;2022-11-21T00:57:26;6.60;99.90
3281;DHT22;1652;51.318;6.202;2022-11-21T00:59:52;6.60;99.90
3281;DHT22;1652;51.318;6.202;2022-11-21T01:02:19;6.60;99.90
3281;DHT22;1652;51.318;6.202;2022-11-21T01:04:46;6.70;99.90
3281;DHT22;1652;51.318;6.202;2022-11-21T01:07:13;6.70;99.90
3281;DHT22;1652;51.318;6.202;2022-11-21T01:09:40;6.80;99.90
3281;DHT22;1652;51.318;6.202;2022-11-21T01:12:07;6.80;99.90
3281;DHT22;1652;51.318;6.202;2022-11-21T01:14:34;6.70;99.90
3281;DHT22;1652;51.318;6.202;2022-11-21T01:17:01;6.70;99.90
3281;DHT22;1652;51.318;6.202;2022-11-21T01:19:27;6.60;99.90
3281;DHT22;1652;51.318;6.202;2022-11-21T01:21:54;6.70;99.90
3281;DHT22;1652;51.318;6.202;2022-11-21T01:24:21;6.60;99.90
3281;DHT22;1652;51.318;6.202;2022-11-21T01:26:48;6.60;99.90
3281;DHT22;1652;51.318;6.202;2022-11-21T01:29:16;6.60;99.90
3281;DHT22;1652;51.318;6.202;2022-11-21T01:31:43;6.50;99.90
3281;DHT22;1652;51.318;6.202;2022-11-21T01:34:10;6.50;99.90
3281;DHT22;1652;51.318;6.202;2022-11-21T01:36:37;6.50;99.90
3281;DHT22;1652;51.318;6.202;2022-11-21T01:39:05;6.50;99.90
3281;DHT22;1652;51.318;6.202;2022-11-21T01:41:39;6.50;99.90
3281;DHT22;1652;51.318;6.202;2022-11-21T01:44:21;6.60;99.90
3281;DHT22;1652;51.318;6.202;2022-11-21T01:46:49;6.50;99.90
3281;DHT22;1652;51.318;6.202;2022-11-21T01:49:20;6.50;99.90
3281;DHT22;1652;51.318;6.202;2022-11-21T01:57:25;6.30;99.90
3281;DHT22;1652;51.318;6.202;2022-11-21T02:00:17;6.20;99.90
3281;DHT22;1652;51.318;6.202;2022-11-21T02:02:52;6.10;99.90
3281;DHT22;1652;51.318;6.202;2022-11-21T02:05:22;6.20;99.90
3281;DHT22;1652;51.318;6.202;2022-11-21T02:07:54;6.20;99.90
3281;DHT22;1652;51.318;6.202;2022-11-21T02:10:22;6.20;99.90
3281;DHT22;1652;51.318;6.202;2022-11-21T02:12:51;6.10;99.90
3281;DHT22;1652;51.318;6.202;2022-11-21T02:15:21;6.10;99.90
3281;DHT22;1652;51.318;6.202;2022-11-21T02:17:48;6.20;99.90
3281;DHT22;1652;51.318;6.202;2022-11-21T02:20:17;6.20;99.90
3281;DHT22;1652;51.318;6.202;2022-11-21T02:23:05;6.10;99.90
3281;DHT22;1652;51.318;6.202;2022-11-21T02:25:35;6.10;99.90
3281;DHT22;1652;51.318;6.202;2022-11-21T02:28:05;6.10;99.90
3281;DHT22;1652;51.318;6.202;2022-11-21T02:30:36;6.00;99.90
3281;DHT22;1652;51.318;6.202;2022-11-21T02:33:04;6.00;99.90
3281;DHT22;1652;51.318;6.202;2022-11-21T02:35:32;5.90;99.90
3281;DHT22;1652;51.318;6.202;2022-11-21T02:40:54;5.90;99.90
3281;DHT22;1652;51.318;6.202;2022-11-21T02:43:27;5.90;99.90
3281;DHT22;1652;51.318;6.202;2022-11-21T02:45:56;5.90;99.90
3281;DHT22;1652;51.318;6.202;2022-11-21T02:48:24;5.90;99.90
3281;DHT22;1652;51.318;6.202;2022-11-21T02:50:51;5.80;99.90
3281;DHT22;1652;51.318;6.202;2022-11-21T02:53:18;5.90;99.90
3281;DHT22;1652;51.318;6.202;2022-11-21T02:55:45;5.90;99.90
3281;DHT22;1652;51.318;6.202;2022-11-21T02:58:12;5.80;99.90
3281;DHT22;1652;51.318;6.202;2022-11-21T03:00:41;5.80;99.90
3281;DHT22;1652;51.318;6.202;2022-11-21T03:03:08;5.80;99.90
3281;DHT22;1652;51.318;6.202;2022-11-21T03:05:36;5.80;99.90
3281;DHT22;1652;51.318;6.202;2022-11-21T03:08:04;5.80;99.90
3281;DHT22;1652;51.318;6.202;2022-11-21T03:10:31;5.80;99.90
3281;DHT22;1652;51.318;6.202;2022-11-21T03:12:58;5.80;99.90
3281;DHT22;1652;51.318;6.202;2022-11-21T03:15:29;5.80;99.90
3281;DHT22;1652;51.318;6.202;2022-11-21T03:17:57;5.80;99.90
3281;DHT22;1652;51.318;6.202;2022-11-21T03:20:26;5.80;99.90
3281;DHT22;1652;51.318;6.202;2022-11-21T03:22:53;5.80;99.90
3281;DHT22;1652;51.318;6.202;2022-11-21T03:25:20;5.80;99.90
3281;DHT22;1652;51.318;6.202;2022-11-21T03:27:51;5.90;99.90
3281;DHT22;1652;51.318;6.202;2022-11-21T03:30:23;5.90;99.90
3281;DHT22;1652;51.318;6.202;2022-11-21T03:32:50;5.90;99.90
3281;DHT22;1652;51.318;6.202;2022-11-21T03:35:17;5.90;99.90
3281;DHT22;1652;51.318;6.202;2022-11-21T03:37:43;5.90;99.90
3281;DHT22;1652;51.318;6.202;2022-11-21T03:40:10;5.90;99.90
3281;DHT22;1652;51.318;6.202;2022-11-21T03:42:37;5.80;99.90
3281;DHT22;1652;51.318;6.202;2022-11-21T03:45:05;5.90;99.90
3281;DHT22;1652;51.318;6.202;2022-11-21T03:47:32;6.00;99.90
3281;DHT22;1652;51.318;6.202;2022-11-21T03:49:58;6.00;99.90
3281;DHT22;1652;51.318;6.202;2022-11-21T03:52:25;5.80;99.90
3281;DHT22;1652;51.318;6.202;2022-11-21T03:54:52;5.90;99.90
3281;DHT22;1652;51.318;6.202;2022-11-21T03:57:19;5.80;99.90
3281;DHT22;1652;51.318;6.202;2022-11-21T03:59:45;5.90;99.90
3281;DHT22;1652;51.318;6.202;2022-11-21T04:02:12;5.80;99.90
3281;DHT22;1652;51.318;6.202;2022-11-21T04:04:39;5.90;99.90
3281;DHT22;1652;51.318;6.202;2022-11-21T04:07:06;5.90;99.90
3281;DHT22;1652;51.318;6.202;2022-11-21T04:09:33;5.80;99.90
3281;DHT22;1652;51.318;6.202;2022-11-21T04:12:00;5.90;99.90
3281;DHT22;1652;51.318;6.202;2022-11-21T04:14:33;5.90;99.90
3281;DHT22;1652;51.318;6.202;2022-11-21T04:16:59;5.90;99.90
3281;DHT22;1652;51.318;6.202;2022-11-21T04:19:26;5.80;99.90
3281;DHT22;1652;51.318;6.202;2022-11-21T04:21:53;5.80;99.90
3281;DHT22;1652;51.318;6.202;2022-11-21T04:24:20;5.90;99.90
3281;DHT22;1652;51.318;6.202;2022-11-21T04:26:46;5.90;99.90
3281;DHT22;1652;51.318;6.202;2022-11-21T04:29:13;6.00;99.90
3281;DHT22;1652;51.318;6.202;2022-11-21T04:31:40;5.90;99.90
3281;DHT22;1652;51.318;6.202;2022-11-21T04:34:06;5.90;99.90
3281;DHT22;1652;51.318;6.202;2022-11-21T04:36:33;5.90;99.90
3281;DHT22;1652;51.318;6.202;2022-11-21T04:39:00;5.70;99.90
3281;DHT22;1652;51.318;6.202;2022-11-21T04:41:27;5.70;99.90
3281;DHT22;1652;51.318;6.202;2022-11-21T04:43:53;6.00;99.90
3281;DHT22;1652;51.318;6.202;2022-11-21T04:46:20;5.80;99.90
3281;DHT22;1652;51.318;6.202;2022-11-21T04:48:47;6.00;99.90
3281;DHT22;1652;51.318;6.202;2022-11-21T04:51:14;5.90;99.90
3281;DHT22;1652;51.318;6.202;2022-11-21T04:53:40;5.70;99.90
3281;DHT22;1652;51.318;6.202;2022-11-21T04:56:09;5.60;99.90
3281;DHT22;1652;51.318;6.202;2022-11-21T04:58:36;5.60;99.90
3281;DHT22;1652;51.318;6.202;2022-11-21T05:01:07;5.60;99.90
3281;DHT22;1652;51.318;6.202;2022-11-21T05:03:35;5.50;99.90
3281;DHT22;1652;51.318;6.202;2022-11-21T05:06:02;5.50;99.90
3281;DHT22;1652;51.318;6.202;2022-11-21T05:08:29;5.40;99.90
3281;DHT22;1652;51.318;6.202;2022-11-21T05:10:55;5.40;99.90
3281;DHT22;1652;51.318;6.202;2022-11-21T05:13:41;5.40;99.90
3281;DHT22;1652;51.318;6.202;2022-11-21T05:16:08;5.50;99.90
3281;DHT22;1652;51.318;6.202;2022-11-21T05:18:35;5.50;99.90
3281;DHT22;1652;51.318;6.202;2022-11-21T05:21:02;5.50;99.90
3281;DHT22;1652;51.318;6.202;2022-11-21T05:23:28;5.50;99.90
3281;DHT22;1652;51.318;6.202;2022-11-21T05:25:55;5.50;99.90
3281;DHT22;1652;51.318;6.202;2022-11-21T05:28:22;5.60;99.90
3281;DHT22;1652;51.318;6.202;2022-11-21T05:30:49;5.50;99.90
3281;DHT22;1652;51.318;6.202;2022-11-21T05:33:17;5.60;99.90
3281;DHT22;1652;51.318;6.202;2022-11-21T05:35:44;5.60;99.90
3281;DHT22;1652;51.318;6.202;2022-11-21T05:38:11;5.60;99.90
3281;DHT22;1652;51.318;6.202;2022-11-21T05:40:38;5.60;99.90
3281;DHT22;1652;51.318;6.202;2022-11-21T05:43:05;5.80;99.90
3281;DHT22;1652;51.318;6.202;2022-11-21T05:45:50;5.70;99.90
3281;DHT22;1652;51.318;6.202;2022-11-21T05:48:17;5.80;99.90
3281;DHT22;1652;51.318;6.202;2022-11-21T05:50:47;5.70;99.90
3281;DHT22;1652;51.318;6.202;2022-11-21T05:53:15;5.70;99.90
3281;DHT22;1652;51.318;6.202;2022-11-21T05:55:42;5.70;99.90
3281;DHT22;1652;51.318;6.202;2022-11-21T05:58:09;5.80;99.90
3281;DHT22;1652;51.318;6.202;2022-11-21T06:00:36;5.80;99.90
3281;DHT22;1652;51.318;6.202;2022-11-21T06:03:04;5.80;99.90
3281;DHT22;1652;51.318;6.202;2022-11-21T06:05:50;5.90;99.90
3281;DHT22;1652;51.318;6.202;2022-11-21T06:08:17;5.90;99.90
3281;DHT22;1652;51.318;6.202;2022-11-21T06:10:44;5.90;99.90
3281;DHT22;1652;51.318;6.202;2022-11-21T06:13:10;5.90;99.90
3281;DHT22;1652;51.318;6.202;2022-11-21T06:15:51;6.00;99.90
3281;DHT22;1652;51.318;6.202;2022-11-21T06:18:19;6.10;99.90
3281;DHT22;1652;51.318;6.202;2022-11-21T06:20:47;6.10;99.90
3281;DHT22;1652;51.318;6.202;2022-11-21T06:23:14;6.10;99.90
3281;DHT22;1652;51.318;6.202;2022-11-21T06:25:41;6.20;99.90
3281;DHT22;1652;51.318;6.202;2022-11-21T06:28:10;6.20;99.90
3281;DHT22;1652;51.318;6.202;2022-11-21T06:30:37;6.20;99.90
3281;DHT22;1652;51.318;6.202;2022-11-21T06:33:05;6.30;99.90
3281;DHT22;1652;51.318;6.202;2022-11-21T06:35:35;6.30;99.90
3281;DHT22;1652;51.318;6.202;2022-11-21T06:38:02;6.30;99.90
3281;DHT22;1652;51.318;6.202;2022-11-21T06:40:29;6.30;99.90
3281;DHT22;1652;51.318;6.202;2022-11-21T06:42:56;6.30;99.90
3281;DHT22;1652;51.318;6.202;2022-11-21T06:45:23;6.30;99.90
3281;DHT22;1652;51.318;6.202;2022-11-21T06:47:49;6.20;99.90
3281;DHT22;1652;51.318;6.202;2022-11-21T06:50:16;6.20;99.90
3281;DHT22;1652;51.318;6.202;2022-11-21T06:52:43;6.30;99.90
3281;DHT22;1652;51.318;6.202;2022-11-21T06:55:10;6.20;99.90
3281;DHT22;1652;51.318;6.202;2022-11-21T06:57:37;6.20;99.90
3281;DHT22;1652;51.318;6.202;2022-11-21T07:00:04;6.20;99.90
3281;DHT22;1652;51.318;6.202;2022-11-21T07:02:31;6.20;99.90
3281;DHT22;1652;51.318;6.202;2022-11-21T07:04:58;6.20;99.90
3281;DHT22;1652;51.318;6.202;2022-11-21T07:07:24;6.30;99.90
3281;DHT22;1652;51.318;6.202;2022-11-21T07:09:51;6.20;99.90
3281;DHT22;1652;51.318;6.202;2022-11-21T07:12:18;6.20;99.90
3281;DHT22;1652;51.318;6.202;2022-11-21T07:15:04;6.20;99.90
3281;DHT22;1652;51.318;6.202;2022-11-21T07:17:31;6.20;99.90
3281;DHT22;1652;51.318;6.202;2022-11-21T07:19:57;6.20;99.90
3281;DHT22;1652;51.318;6.202;2022-11-21T07:22:24;6.30;99.90
3281;DHT22;1652;51.318;6.202;2022-11-21T07:24:51;6.30;99.90
3281;DHT22;1652;51.318;6.202;2022-11-21T07:27:17;6.30;99.90
3281;DHT22;1652;51.318;6.202;2022-11-21T07:29:44;6.40;99.90
3281;DHT22;1652;51.318;6.202;2022-11-21T07:32:11;6.40;99.90
3281;DHT22;1652;51.318;6.202;2022-11-21T07:34:38;6.50;99.90
3281;DHT22;1652;51.318;6.202;2022-11-21T07:37:04;6.50;99.90
3281;DHT22;1652;51.318;6.202;2022-11-21T07:39:31;6.40;99.90
3281;DHT22;1652;51.318;6.202;2022-11-21T07:41:58;6.40;99.90
3281;DHT22;1652;51.318;6.202;2022-11-21T07:44:25;6.50;99.90
3281;DHT22;1652;51.318;6.202;2022-11-21T07:46:55;6.50;99.90
3281;DHT22;1652;51.318;6.202;2022-11-21T07:49:22;6.50;99.90
3281;DHT22;1652;51.318;6.202;2022-11-21T07:51:49;6.50;99.90
3281;DHT22;1652;51.318;6.202;2022-11-21T07:54:15;6.50;99.90
3281;DHT22;1652;51.318;6.202;2022-11-21T07:59:07;6.40;99.90
3281;DHT22;1652;51.318;6.202;2022-11-21T08:01:34;6.50;99.90
3281;DHT22;1652;51.318;6.202;2022-11-21T08:04:04;6.50;99.90
3281;DHT22;1652;51.318;6.202;2022-11-21T08:06:30;6.60;99.90
3281;DHT22;1652;51.318;6.202;2022-11-21T08:08:59;6.60;99.90
3281;DHT22;1652;51.318;6.202;2022-11-21T08:11:26;6.60;99.90
3281;DHT22;1652;51.318;6.202;2022-11-21T08:13:53;6.60;99.90
3281;DHT22;1652;51.318;6.202;2022-11-21T08:16:20;6.60;99.90
3281;DHT22;1652;51.318;6.202;2022-11-21T08:18:48;6.60;99.90
3281;DHT22;1652;51.318;6.202;2022-11-21T08:21:16;6.60;99.90
3281;DHT22;1652;51.318;6.202;2022-11-21T08:23:45;6.70;99.90
3281;DHT22;1652;51.318;6.202;2022-11-21T08:26:12;6.70;99.90
3281;DHT22;1652;51.318;6.202;2022-11-21T08:28:39;6.70;99.90
3281;DHT22;1652;51.318;6.202;2022-11-21T08:31:06;6.70;99.90
3281;DHT22;1652;51.318;6.202;2022-11-21T08:33:32;6.80;99.90
3281;DHT22;1652;51.318;6.202;2022-11-21T08:36:03;6.80;99.90
3281;DHT22;1652;51.318;6.202;2022-11-21T08:38:31;6.80;99.90
3281;DHT22;1652;51.318;6.202;2022-11-21T08:40:57;6.80;99.90
3281;DHT22;1652;51.318;6.202;2022-11-21T08:43:43;6.80;99.90
3281;DHT22;1652;51.318;6.202;2022-11-21T08:46:10;6.90;99.90
3281;DHT22;1652;51.318;6.202;2022-11-21T08:48:37;7.00;99.90
3281;DHT22;1652;51.318;6.202;2022-11-21T08:51:03;7.10;99.90
3281;DHT22;1652;51.318;6.202;2022-11-21T08:53:30;7.30;99.90
3281;DHT22;1652;51.318;6.202;2022-11-21T08:55:57;7.40;99.90
3281;DHT22;1652;51.318;6.202;2022-11-21T08:58:29;7.50;99.90
3281;DHT22;1652;51.318;6.202;2022-11-21T09:00:58;7.70;99.90
3281;DHT22;1652;51.318;6.202;2022-11-21T09:03:25;7.80;99.90
3281;DHT22;1652;51.318;6.202;2022-11-21T09:05:57;7.80;99.90
3281;DHT22;1652;51.318;6.202;2022-11-21T09:08:24;7.80;99.90
3281;DHT22;1652;51.318;6.202;2022-11-21T09:10:51;7.60;99.90
3281;DHT22;1652;51.318;6.202;2022-11-21T09:13:18;7.50;99.90
3281;DHT22;1652;51.318;6.202;2022-11-21T09:15:45;7.60;99.90
3281;DHT22;1652;51.318;6.202;2022-11-21T09:18:31;7.50;99.90
3281;DHT22;1652;51.318;6.202;2022-11-21T09:20:58;7.50;99.90
3281;DHT22;1652;51.318;6.202;2022-11-21T09:23:25;7.70;99.90
3281;DHT22;1652;51.318;6.202;2022-11-21T09:25:51;7.80;99.90
3281;DHT22;1652;51.318;6.202;2022-11-21T09:28:18;7.90;99.90
3281;DHT22;1652;51.318;6.202;2022-11-21T09:30:45;8.00;99.90
3281;DHT22;1652;51.318;6.202;2022-11-21T09:33:14;7.80;99.90
3281;DHT22;1652;51.318;6.202;2022-11-21T09:35:42;7.70;99.90
3281;DHT22;1652;51.318;6.202;2022-11-21T09:38:11;7.60;99.90
3281;DHT22;1652;51.318;6.202;2022-11-21T09:40:42;7.60;99.90
3281;DHT22;1652;51.318;6.202;2022-11-21T09:46:02;7.60;99.90
3281;DHT22;1652;51.318;6.202;2022-11-21T09:51:11;7.60;99.90
3281;DHT22;1652;51.318;6.202;2022-11-21T09:56:17;7.70;99.90
3281;DHT22;1652;51.318;6.202;2022-11-21T09:59:05;7.60;99.90
3281;DHT22;1652;51.318;6.202;2022-11-21T10:01:33;7.60;99.90
3281;DHT22;1652;51.318;6.202;2022-11-21T10:04:02;7.60;99.90
3281;DHT22;1652;51.318;6.202;2022-11-21T10:06:35;7.60;99.90
3281;DHT22;1652;51.318;6.202;2022-11-21T10:09:06;7.50;99.90
3281;DHT22;1652;51.318;6.202;2022-11-21T10:11:51;7.40;99.90
3281;DHT22;1652;51.318;6.202;2022-11-21T10:14:52;7.50;99.90
3281;DHT22;1652;51.318;6.202;2022-11-21T10:28:50;7.70;99.90
3281;DHT22;1652;51.318;6.202;2022-11-21T10:31:18;7.70;99.90
3281;DHT22;1652;51.318;6.202;2022-11-21T10:33:45;7.80;99.90
3281;DHT22;1652;51.318;6.202;2022-11-21T10:36:29;7.80;99.90
3281;DHT22;1652;51.318;6.202;2022-11-21T10:39:02;7.80;99.90
3281;DHT22;1652;51.318;6.202;2022-11-21T10:44:34;7.90;99.90
3281;DHT22;1652;51.318;6.202;2022-11-21T10:47:22;7.80;99.90
3281;DHT22;1652;51.318;6.202;2022-11-21T10:52:48;7.80;99.90
3281;DHT22;1652;51.318;6.202;2022-11-21T10:55:16;7.90;99.90
3281;DHT22;1652;51.318;6.202;2022-11-21T10:57:46;8.00;99.90
3281;DHT22;1652;51.318;6.202;2022-11-21T11:05:24;8.00;99.90
3281;DHT22;1652;51.318;6.202;2022-11-21T11:08:11;8.00;99.90
3281;DHT22;1652;51.318;6.202;2022-11-21T11:13:17;8.00;99.90
3281;DHT22;1652;51.318;6.202;2022-11-21T11:16:18;8.00;99.90
3281;DHT22;1652;51.318;6.202;2022-11-21T11:21:45;8.20;99.90
3281;DHT22;1652;51.318;6.202;2022-11-21T11:29:29;8.40;99.90
3281;DHT22;1652;51.318;6.202;2022-11-21T11:34:59;8.40;99.90
3281;DHT22;1652;51.318;6.202;2022-11-21T11:37:38;8.40;99.90
3281;DHT22;1652;51.318;6.202;2022-11-21T11:48:40;8.80;99.90
3281;DHT22;1652;51.318;6.202;2022-11-21T11:51:44;9.00;99.90
3281;DHT22;1652;51.318;6.202;2022-11-21T11:54:43;9.10;99.90
3281;DHT22;1652;51.318;6.202;2022-11-21T11:57:13;9.20;99.90
3281;DHT22;1652;51.318;6.202;2022-11-21T11:59:45;9.10;99.90
3281;DHT22;1652;51.318;6.202;2022-11-21T12:02:29;9.00;99.90
3281;DHT22;1652;51.318;6.202;2022-11-21T12:05:07;9.10;99.90
3281;DHT22;1652;51.318;6.202;2022-11-21T12:07:38;9.00;99.90
3281;DHT22;1652;51.318;6.202;2022-11-21T12:13:08;8.90;99.90
3281;DHT22;1652;51.318;6.202;2022-11-21T12:15:46;8.90;99.90
3281;DHT22;1652;51.318;6.202;2022-11-21T12:29:06;8.60;99.90
3281;DHT22;1652;51.318;6.202;2022-11-21T12:34:19;8.70;99.90
3281;DHT22;1652;51.318;6.202;2022-11-21T12:37:03;8.70;99.90
3281;DHT22;1652;51.318;6.202;2022-11-21T12:51:38;8.60;99.90
3281;DHT22;1652;51.318;6.202;2022-11-21T13:03:00;8.80;99.90
3281;DHT22;1652;51.318;6.202;2022-11-21T13:05:31;8.80;99.90
3281;DHT22;1652;51.318;6.202;2022-11-21T13:08:06;8.80;99.90
3281;DHT22;1652;51.318;6.202;2022-11-21T13:10:34;8.80;99.90
3281;DHT22;1652;51.318;6.202;2022-11-21T13:13:18;8.70;99.90
3281;DHT22;1652;51.318;6.202;2022-11-21T13:15:59;8.80;99.90
3281;DHT22;1652;51.318;6.202;2022-11-21T13:18:28;8.80;99.90
3281;DHT22;1652;51.318;6.202;2022-11-21T13:20:56;8.90;99.90
3281;DHT22;1652;51.318;6.202;2022-11-21T13:23:40;8.90;99.90
3281;DHT22;1652;51.318;6.202;2022-11-21T13:31:33;8.90;99.90
3281;DHT22;1652;51.318;6.202;2022-11-21T13:34:04;9.00;99.90
3281;DHT22;1652;51.318;6.202;2022-11-21T13:47:01;8.80;99.90
3281;DHT22;1652;51.318;6.202;2022-11-21T14:06:09;8.60;99.90
3281;DHT22;1652;51.318;6.202;2022-11-21T14:08:40;8.50;99.90
3281;DHT22;1652;51.318;6.202;2022-11-21T14:11:27;8.50;99.90
3281;DHT22;1652;51.318;6.202;2022-11-21T14:13:55;8.50;99.90
3281;DHT22;1652;51.318;6.202;2022-11-21T14:16:40;8.50;99.90
3281;DHT22;1652;51.318;6.202;2022-11-21T14:19:13;8.40;99.90
3281;DHT22;1652;51.318;6.202;2022-11-21T14:21:44;8.40;99.90
3281;DHT22;1652;51.318;6.202;2022-11-21T14:24:18;8.50;99.90
3281;DHT22;1652;51.318;6.202;2022-11-21T14:26:50;8.40;99.90
3281;DHT22;1652;51.318;6.202;2022-11-21T14:31:54;8.40;99.90
3281;DHT22;1652;51.318;6.202;2022-11-21T14:34:26;8.40;99.90
3281;DHT22;1652;51.318;6.202;2022-11-21T14:36:57;8.30;99.90
3281;DHT22;1652;51.318;6.202;2022-11-21T14:39:26;8.30;99.90
3281;DHT22;1652;51.318;6.202;2022-11-21T14:42:11;8.20;99.90
3281;DHT22;1652;51.318;6.202;2022-11-21T14:44:39;8.20;99.90
3281;DHT22;1652;51.318;6.202;2022-11-21T14:47:18;8.20;99.90
3281;DHT22;1652;51.318;6.202;2022-11-21T14:49:53;8.20;99.90
3281;DHT22;1652;51.318;6.202;2022-11-21T14:52:24;8.20;99.90
3281;DHT22;1652;51.318;6.202;2022-11-21T14:55:01;8.10;99.90
3281;DHT22;1652;51.318;6.202;2022-11-21T14:57:48;8.00;99.90
3281;DHT22;1652;51.318;6.202;2022-11-21T15:00:19;8.10;99.90
3281;DHT22;1652;51.318;6.202;2022-11-21T15:03:19;8.10;99.90
3281;DHT22;1652;51.318;6.202;2022-11-21T15:05:48;8.10;99.90
3281;DHT22;1652;51.318;6.202;2022-11-21T15:16:39;7.80;99.90
3281;DHT22;1652;51.318;6.202;2022-11-21T15:19:10;7.90;99.90
3281;DHT22;1652;51.318;6.202;2022-11-21T15:21:43;7.80;99.90
3281;DHT22;1652;51.318;6.202;2022-11-21T15:24:17;7.70;99.90
3281;DHT22;1652;51.318;6.202;2022-11-21T15:26:44;7.70;99.90
3281;DHT22;1652;51.318;6.202;2022-11-21T15:29:18;7.70;99.90
3281;DHT22;1652;51.318;6.202;2022-11-21T15:32:05;7.70;99.90
3281;DHT22;1652;51.318;6.202;2022-11-21T15:34:32;7.70;99.90
3281;DHT22;1652;51.318;6.202;2022-11-21T15:37:20;7.70;99.90
3281;DHT22;1652;51.318;6.202;2022-11-21T15:39:50;7.60;99.90
3281;DHT22;1652;51.318;6.202;2022-11-21T15:42:32;7.70;99.90
3281;DHT22;1652;51.318;6.202;2022-11-21T15:47:28;7.70;99.90
3281;DHT22;1652;51.318;6.202;2022-11-21T15:49:54;7.70;99.90
3281;DHT22;1652;51.318;6.202;2022-11-21T15:52:21;7.70;99.90
3281;DHT22;1652;51.318;6.202;2022-11-21T15:54:48;7.70;99.90
3281;DHT22;1652;51.318;6.202;2022-11-21T15:57:15;7.70;99.90
3281;DHT22;1652;51.318;6.202;2022-11-21T15:59:44;7.70;99.90
3281;DHT22;1652;51.318;6.202;2022-11-21T16:02:13;7.60;99.90
3281;DHT22;1652;51.318;6.202;2022-11-21T16:04:41;7.70;99.90
3281;DHT22;1652;51.318;6.202;2022-11-21T16:07:07;7.80;99.90
3281;DHT22;1652;51.318;6.202;2022-11-21T16:09:34;7.60;99.90
3281;DHT22;1652;51.318;6.202;2022-11-21T16:12:03;7.70;99.90
3281;DHT22;1652;51.318;6.202;2022-11-21T16:14:29;7.80;99.90
3281;DHT22;1652;51.318;6.202;2022-11-21T16:16:56;7.80;99.90
3281;DHT22;1652;51.318;6.202;2022-11-21T16:19:23;7.80;99.90
3281;DHT22;1652;51.318;6.202;2022-11-21T16:21:50;7.80;99.90
3281;DHT22;1652;51.318;6.202;2022-11-21T16:24:16;7.80;99.90
3281;DHT22;1652;51.318;6.202;2022-11-21T16:26:43;7.70;99.90
3281;DHT22;1652;51.318;6.202;2022-11-21T16:29:10;7.70;99.90
3281;DHT22;1652;51.318;6.202;2022-11-21T16:31:37;7.70;99.90
3281;DHT22;1652;51.318;6.202;2022-11-21T16:34:03;7.70;99.90
3281;DHT22;1652;51.318;6.202;2022-11-21T16:36:31;7.70;99.90
3281;DHT22;1652;51.318;6.202;2022-11-21T16:38:58;7.70;99.90
3281;DHT22;1652;51.318;6.202;2022-11-21T16:41:34;7.70;99.90
3281;DHT22;1652;51.318;6.202;2022-11-21T16:44:01;7.70;99.90
3281;DHT22;1652;51.318;6.202;2022-11-21T16:46:28;7.70;99.90
3281;DHT22;1652;51.318;6.202;2022-11-21T16:49:00;7.70;99.90
3281;DHT22;1652;51.318;6.202;2022-11-21T16:51:28;7.70;99.90
3281;DHT22;1652;51.318;6.202;2022-11-21T16:53:56;7.70;99.90
3281;DHT22;1652;51.318;6.202;2022-11-21T16:56:28;7.70;99.90
3281;DHT22;1652;51.318;6.202;2022-11-21T16:58:55;7.70;99.90
3281;DHT22;1652;51.318;6.202;2022-11-21T17:01:23;7.70;99.90
3281;DHT22;1652;51.318;6.202;2022-11-21T17:03:51;7.70;99.90
3281;DHT22;1652;51.318;6.202;2022-11-21T17:06:21;7.70;99.90
3281;DHT22;1652;51.318;6.202;2022-11-21T17:08:48;7.70;99.90
3281;DHT22;1652;51.318;6.202;2022-11-21T17:11:23;7.70;99.90
3281;DHT22;1652;51.318;6.202;2022-11-21T17:13:57;7.70;99.90
3281;DHT22;1652;51.318;6.202;2022-11-21T17:16:25;7.80;99.90
3281;DHT22;1652;51.318;6.202;2022-11-21T17:18:53;7.90;99.90
3281;DHT22;1652;51.318;6.202;2022-11-21T17:21:21;7.80;99.90
3281;DHT22;1652;51.318;6.202;2022-11-21T17:23:48;7.70;99.90
3281;DHT22;1652;51.318;6.202;2022-11-21T17:26:21;7.70;99.90
3281;DHT22;1652;51.318;6.202;2022-11-21T17:28:56;7.70;99.90
3281;DHT22;1652;51.318;6.202;2022-11-21T17:31:24;7.70;99.90
3281;DHT22;1652;51.318;6.202;2022-11-21T17:33:58;7.80;99.90
3281;DHT22;1652;51.318;6.202;2022-11-21T17:36:27;7.70;99.90
3281;DHT22;1652;51.318;6.202;2022-11-21T17:38:54;7.70;99.90
3281;DHT22;1652;51.318;6.202;2022-11-21T17:41:22;7.80;99.90
3281;DHT22;1652;51.318;6.202;2022-11-21T17:43:53;7.90;99.90
3281;DHT22;1652;51.318;6.202;2022-11-21T17:46:21;7.90;99.90
3281;DHT22;1652;51.318;6.202;2022-11-21T17:48:50;7.90;99.90
3281;DHT22;1652;51.318;6.202;2022-11-21T17:51:25;7.70;99.90
3281;DHT22;1652;51.318;6.202;2022-11-21T17:53:53;7.70;99.90
3281;DHT22;1652;51.318;6.202;2022-11-21T17:56:22;7.60;99.90
3281;DHT22;1652;51.318;6.202;2022-11-21T17:58:50;7.60;99.90
3281;DHT22;1652;51.318;6.202;2022-11-21T18:01:17;7.70;99.90
3281;DHT22;1652;51.318;6.202;2022-11-21T18:06:20;7.60;99.90
3281;DHT22;1652;51.318;6.202;2022-11-21T18:08:47;7.60;99.90
3281;DHT22;1652;51.318;6.202;2022-11-21T18:11:17;7.50;99.90
3281;DHT22;1652;51.318;6.202;2022-11-21T18:13:47;7.40;99.90
3281;DHT22;1652;51.318;6.202;2022-11-21T18:16:17;7.40;99.90
3281;DHT22;1652;51.318;6.202;2022-11-21T18:18:44;7.40;99.90
3281;DHT22;1652;51.318;6.202;2022-11-21T18:21:14;7.40;99.90
3281;DHT22;1652;51.318;6.202;2022-11-21T18:23:41;7.40;99.90
3281;DHT22;1652;51.318;6.202;2022-11-21T18:26:19;7.40;99.90
3281;DHT22;1652;51.318;6.202;2022-11-21T18:28:53;7.40;99.90
3281;DHT22;1652;51.318;6.202;2022-11-21T18:31:40;7.40;99.90
3281;DHT22;1652;51.318;6.202;2022-11-21T18:34:08;7.40;99.90
3281;DHT22;1652;51.318;6.202;2022-11-21T18:36:35;7.40;99.90
3281;DHT22;1652;51.318;6.202;2022-11-21T18:39:02;7.40;99.90
3281;DHT22;1652;51.318;6.202;2022-11-21T18:41:37;7.30;99.90
3281;DHT22;1652;51.318;6.202;2022-11-21T18:44:05;7.40;99.90
3281;DHT22;1652;51.318;6.202;2022-11-21T18:46:34;7.30;99.90
3281;DHT22;1652;51.318;6.202;2022-11-21T18:49:02;7.30;99.90
3281;DHT22;1652;51.318;6.202;2022-11-21T18:51:33;7.30;99.90
3281;DHT22;1652;51.318;6.202;2022-11-21T18:54:03;7.20;99.90
3281;DHT22;1652;51.318;6.202;2022-11-21T18:56:33;7.20;99.90
3281;DHT22;1652;51.318;6.202;2022-11-21T18:59:00;7.20;99.90
3281;DHT22;1652;51.318;6.202;2022-11-21T19:01:29;7.10;99.90
3281;DHT22;1652;51.318;6.202;2022-11-21T19:03:56;7.10;99.90